Cabinet, Idaho
Current Conditions -  °F | °C
As of 4:55 PM on Wednesday 22 Oct 2014 (Local Time) from KSZT Reporting Station
Moderate Rain Moderate Rain  
Wind Chill: 50°   Ceiling: 4200
Heat Index: 50°   Visibility: 10mi
Dew Point: 50°   Wind: 7mph
Humidity: 100%   Direction: 30°NNE
Pressure: 29.87"   Gusts: NA
Location:  48.029°N, 116.307°W
Report Text: KSZT 222355Z AUTO 03006KT 10SM RA OVC042 10/10 A2987 RMK AO2
Loading
Personal Weather Stations






























Interactive Weather Map
Tropical Storm Tracking
New forecast layout! Learn more

10-Day Weather Forecast

Advertisements
Track Severe Weather on mobile